Time;durP1;ratioP1;P1;durP2;ratioP2;P2;SDS_P1;SDS_P2;PMS_P1;PMS_P2;Temp;Humidity;BMP_temperature;BMP_pressure;BME280_temperature;BME280_humidity;BME280_pressure;Samples;Min_cycle;Max_cycle;Signal;HPM_P1;HPM_P2
2023/09/26 00:01:29;;;;;;;12.80;9.40;;;;;;;19.20;75.85;100628.33;107119;1257;72092;-40
2023/09/26 00:03:57;;;;;;;18.20;10.00;;;;;;;19.23;75.97;100628.95;107050;1258;67606;-40
2023/09/26 00:06:25;;;;;;;13.20;9.70;;;;;;;19.24;75.99;100629.74;107088;1258;73115;-40
2023/09/26 00:08:52;;;;;;;13.00;9.80;;;;;;;19.22;76.15;100622.66;107077;1258;59684;-40
2023/09/26 00:11:20;;;;;;;13.80;10.40;;;;;;;19.19;76.13;100620.61;107119;1258;60212;-40
2023/09/26 00:13:49;;;;;;;15.90;10.30;;;;;;;19.16;76.15;100617.63;107094;1258;71781;-40
2023/09/26 00:16:16;;;;;;;12.70;8.70;;;;;;;19.17;76.13;100616.36;107095;1257;66602;-40
2023/09/26 00:18:44;;;;;;;13.00;9.90;;;;;;;19.18;76.04;100614.63;107116;1259;71723;-39
2023/09/26 00:21:12;;;;;;;13.50;10.10;;;;;;;19.19;76.10;100616.13;107119;1259;60114;-40
2023/09/26 00:23:40;;;;;;;13.70;10.80;;;;;;;19.16;76.01;100620.36;107135;1257;60009;-40
2023/09/26 00:26:08;;;;;;;18.40;10.80;;;;;;;19.12;76.12;100623.34;107090;1261;73089;-40
2023/09/26 00:28:37;;;;;;;16.70;10.80;;;;;;;19.08;76.18;100627.32;107123;1257;65482;-40
2023/09/26 00:31:06;;;;;;;14.50;10.90;;;;;;;19.02;76.13;100620.63;107078;1259;72657;-39
2023/09/26 00:33:33;;;;;;;14.80;10.00;;;;;;;19.06;76.30;100627.33;107099;1258;61773;-40
2023/09/26 00:36:08;;;;;;;13.70;10.20;;;;;;;19.04;76.42;100627.31;107064;1257;60345;-39
2023/09/26 00:38:36;;;;;;;14.20;10.20;;;;;;;19.01;76.60;100628.86;107140;1259;73833;-39
2023/09/26 00:41:03;;;;;;;14.80;11.20;;;;;;;18.99;76.67;100627.67;107082;1257;66069;-40
2023/09/26 00:43:31;;;;;;;15.20;10.80;;;;;;;18.98;76.70;100627.89;107074;1258;72674;-39
2023/09/26 00:45:59;;;;;;;13.70;10.10;;;;;;;18.99;76.67;100628.21;107029;1259;60452;-40
2023/09/26 00:48:27;;;;;;;13.40;10.30;;;;;;;19.01;76.69;100626.59;107131;1257;60636;-40
2023/09/26 00:50:55;;;;;;;16.60;10.30;;;;;;;19.02;76.63;100629.98;107020;1257;72732;-40
2023/09/26 00:53:23;;;;;;;13.90;11.00;;;;;;;18.98;76.72;100627.81;107112;1258;66477;-40
2023/09/26 00:55:55;;;;;;;14.90;11.30;;;;;;;18.97;76.76;100627.73;107051;1257;72721;-39
2023/09/26 00:58:23;;;;;;;13.90;10.80;;;;;;;18.96;76.88;100628.92;107104;1259;60766;-40
2023/09/26 01:00:51;;;;;;;14.90;11.70;;;;;;;18.98;76.75;100630.57;107148;1259;60442;-40
2023/09/26 01:03:20;;;;;;;14.00;10.80;;;;;;;19.00;76.64;100626.66;107124;1259;72989;-40
2023/09/26 01:05:50;;;;;;;12.30;10.90;;;;;;;19.01;76.54;100626.59;107105;1258;67575;-40
2023/09/26 01:08:19;;;;;;;15.20;11.90;;;;;;;18.99;76.69;100627.44;107087;1257;71499;-40
2023/09/26 01:10:46;;;;;;;16.30;12.10;;;;;;;18.96;76.90;100624.83;107081;1259;61100;-40
2023/09/26 01:13:14;;;;;;;14.20;11.40;;;;;;;18.91;77.02;100620.17;107075;1260;60407;-40
2023/09/26 01:15:43;;;;;;;12.10;10.80;;;;;;;18.94;76.90;100619.95;107105;1262;73927;-40
2023/09/26 01:18:12;;;;;;;15.10;11.20;;;;;;;18.98;76.82;100616.67;107083;1262;67608;-40
2023/09/26 01:20:43;;;;;;;14.10;11.10;;;;;;;19.00;76.88;100616.91;107134;1260;71811;-40
2023/09/26 01:23:14;;;;;;;12.70;11.30;;;;;;;18.97;76.95;100611.09;107076;1257;60479;-40
2023/09/26 01:25:42;;;;;;;12.20;10.40;;;;;;;18.93;77.00;100611.55;107098;1257;60547;-40
2023/09/26 01:28:17;;;;;;;13.50;12.00;;;;;;;18.91;76.80;100610.98;107060;1257;72396;-40
2023/09/26 01:30:46;;;;;;;13.20;11.60;;;;;;;18.91;76.88;100611.46;107111;1257;67358;-40
2023/09/26 01:33:19;;;;;;;16.00;12.60;;;;;;;18.93;76.72;100617.90;107058;1259;71410;-40
2023/09/26 01:35:48;;;;;;;13.30;11.70;;;;;;;18.90;76.80;100616.16;107095;1259;60563;-40
2023/09/26 01:38:17;;;;;;;13.60;11.70;;;;;;;18.87;77.01;100615.45;107115;1259;59657;-40
2023/09/26 01:40:45;;;;;;;14.20;11.80;;;;;;;18.83;77.03;100620.21;107110;1257;73877;-40
2023/09/26 01:43:13;;;;;;;15.10;11.50;;;;;;;18.79;77.25;100622.45;107081;1259;67633;-40
2023/09/26 01:45:43;;;;;;;12.80;11.20;;;;;;;18.80;77.19;100619.01;107030;1259;72752;-40
2023/09/26 01:48:12;;;;;;;13.50;11.30;;;;;;;18.83;77.33;100620.36;106981;1257;60912;-40
2023/09/26 01:50:40;;;;;;;12.20;10.90;;;;;;;18.85;77.17;100622.73;107062;1259;60349;-40
2023/09/26 01:53:09;;;;;;;13.40;12.00;;;;;;;18.84;77.11;100627.67;107039;1259;72963;-40
2023/09/26 01:55:38;;;;;;;14.80;12.60;;;;;;;18.84;77.24;100630.17;107120;1259;66633;-40
2023/09/26 01:58:06;;;;;;;16.60;12.30;;;;;;;18.83;77.24;100631.20;107001;1257;71741;-40
2023/09/26 02:00:34;;;;;;;15.50;11.50;;;;;;;18.85;77.14;100629.40;107065;1259;60412;-40
2023/09/26 02:03:03;;;;;;;13.40;11.50;;;;;;;18.87;77.07;100636.33;107112;1258;60552;-40
2023/09/26 02:05:30;;;;;;;15.60;12.40;;;;;;;18.89;77.11;100636.41;107105;1257;72701;-40
2023/09/26 02:07:58;;;;;;;14.90;12.80;;;;;;;18.87;77.28;100633.11;107000;1259;67615;-40
2023/09/26 02:10:26;;;;;;;15.80;13.40;;;;;;;18.83;77.61;100631.75;107069;1259;71746;-40
2023/09/26 02:12:54;;;;;;;15.40;12.90;;;;;;;18.82;77.77;100635.98;107060;1258;61684;-40
2023/09/26 02:15:22;;;;;;;16.00;13.00;;;;;;;18.84;77.74;100635.83;107072;1258;60467;-40
2023/09/26 02:17:51;;;;;;;15.60;13.10;;;;;;;18.88;77.60;100634.29;107068;1259;73930;-40
2023/09/26 02:20:19;;;;;;;17.00;13.90;;;;;;;18.90;77.71;100631.55;107119;1258;67649;-40
2023/09/26 02:22:48;;;;;;;17.50;14.20;;;;;;;18.90;77.86;100634.67;107049;1263;71471;-40
2023/09/26 02:25:20;;;;;;;17.60;15.10;;;;;;;18.89;77.88;100635.55;107185;1261;60332;-40
2023/09/26 02:27:48;;;;;;;18.80;14.50;;;;;;;18.89;77.80;100639.31;107095;1258;60024;-40
2023/09/26 02:30:26;;;;;;;18.10;14.20;;;;;;;18.89;77.49;100638.22;107062;1258;73838;-40
2023/09/26 02:32:54;;;;;;;19.30;15.30;;;;;;;18.89;77.36;100638.45;107086;1259;67603;-40
2023/09/26 02:35:22;;;;;;;17.90;14.80;;;;;;;18.90;77.48;100639.72;107071;1259;72705;-40
2023/09/26 02:37:50;;;;;;;20.00;15.70;;;;;;;18.88;77.70;100639.93;107065;1258;60512;-40
2023/09/26 02:40:17;;;;;;;21.20;14.90;;;;;;;18.86;77.70;100650.84;107084;1257;60365;-40
2023/09/26 02:42:46;;;;;;;20.40;15.10;;;;;;;18.84;77.66;100651.76;107103;1263;73826;-40
2023/09/26 02:45:14;;;;;;;19.30;14.40;;;;;;;18.84;77.41;100659.30;107247;1259;67914;-40
2023/09/26 02:47:42;;;;;;;18.20;15.40;;;;;;;18.83;77.34;100661.35;107157;1256;72688;-39
2023/09/26 02:50:11;;;;;;;21.70;16.60;;;;;;;18.82;77.46;100661.43;107253;1258;60555;-40
2023/09/26 02:52:40;;;;;;;20.50;16.00;;;;;;;18.80;77.47;100662.27;107377;1257;60174;-39
2023/09/26 02:55:09;;;;;;;22.10;16.30;;;;;;;18.73;77.50;100659.63;107357;1257;73854;-40
2023/09/26 02:57:37;;;;;;;21.40;15.50;;;;;;;18.70;77.66;100657.41;107297;1256;66620;-40
2023/09/26 03:00:12;;;;;;;19.30;14.90;;;;;;;18.71;77.74;100658.91;107074;1259;71439;-40
2023/09/26 03:02:41;;;;;;;19.00;15.60;;;;;;;18.75;77.85;100666.16;106998;1260;61722;-40
2023/09/26 03:05:12;;;;;;;17.60;15.50;;;;;;;18.76;77.94;100665.77;107122;1259;60317;-40
2023/09/26 03:07:40;;;;;;;20.00;16.60;;;;;;;18.77;78.08;100670.89;107063;1258;72894;-40
2023/09/26 03:10:08;;;;;;;21.20;17.40;;;;;;;18.75;78.02;100670.55;107074;1259;66800;-39
2023/09/26 03:12:36;;;;;;;20.90;16.80;;;;;;;18.72;77.87;100666.38;107072;1259;72725;-40
2023/09/26 03:15:06;;;;;;;21.70;16.70;;;;;;;18.73;77.53;100667.48;107039;1259;61142;-40
2023/09/26 03:17:34;;;;;;;21.20;17.30;;;;;;;18.74;77.54;100667.02;107121;1257;60365;-40
2023/09/26 03:20:02;;;;;;;19.70;16.20;;;;;;;18.76;77.48;100669.94;107051;1257;73854;-40
2023/09/26 03:22:30;;;;;;;20.20;17.30;;;;;;;18.74;77.61;100673.05;107087;1259;66325;-40
2023/09/26 03:24:57;;;;;;;24.50;19.40;;;;;;;18.73;77.52;100674.95;107030;1263;72686;-40
2023/09/26 03:27:25;;;;;;;25.80;18.50;;;;;;;18.70;77.49;100670.91;107067;1259;61710;-40
2023/09/26 03:29:53;;;;;;;23.00;18.40;;;;;;;18.71;77.55;100673.52;107028;1258;60306;-40
2023/09/26 03:32:21;;;;;;;20.50;17.90;;;;;;;18.76;77.53;100676.69;107094;1257;72675;-40
2023/09/26 03:34:49;;;;;;;23.20;19.30;;;;;;;18.79;77.38;100678.27;107044;1259;67572;-40
2023/09/26 03:37:18;;;;;;;24.30;19.50;;;;;;;18.79;77.46;100681.16;107042;1259;71450;-40
2023/09/26 03:39:49;;;;;;;27.10;21.00;;;;;;;18.75;77.45;100675.11;107054;1259;60313;-40
2023/09/26 03:42:17;;;;;;;23.00;20.20;;;;;;;18.78;77.48;100683.77;106898;1259;59295;-40
2023/09/26 03:44:44;;;;;;;25.50;19.30;;;;;;;18.82;77.41;100685.05;107095;1259;73814;-40
2023/09/26 03:47:12;;;;;;;23.40;19.60;;;;;;;18.86;77.30;100690.17;107037;1259;67600;-40
2023/09/26 03:49:39;;;;;;;24.00;19.90;;;;;;;18.90;77.20;100690.35;107024;1259;70869;-40
2023/09/26 03:52:08;;;;;;;24.70;20.40;;;;;;;18.90;77.35;100689.41;107036;1259;60536;-40
2023/09/26 03:54:36;;;;;;;24.40;19.70;;;;;;;18.89;77.17;100689.09;107124;1259;60486;-40
2023/09/26 03:57:04;;;;;;;21.90;18.80;;;;;;;18.88;76.98;100695.92;107026;1262;73833;-40
2023/09/26 03:59:33;;;;;;;21.10;18.00;;;;;;;18.88;76.88;100693.88;107039;1258;67593;-40
2023/09/26 04:02:00;;;;;;;22.50;17.30;;;;;;;18.90;76.85;100694.82;107084;1263;71933;-40
2023/09/26 04:04:31;;;;;;;19.20;16.50;;;;;;;18.88;76.97;100692.78;107051;1259;60434;-40
2023/09/26 04:06:59;;;;;;;21.80;17.10;;;;;;;18.84;77.13;100695.27;107051;1259;60057;-40
2023/09/26 04:09:27;;;;;;;20.20;16.00;;;;;;;18.80;77.32;100692.48;107034;1259;73873;-40
2023/09/26 04:11:55;;;;;;;19.70;15.70;;;;;;;18.80;77.46;100691.15;107033;1263;66325;-40
2023/09/26 04:14:22;;;;;;;18.50;14.70;;;;;;;18.82;77.16;100693.77;107050;1263;71371;-40
2023/09/26 04:16:50;;;;;;;17.30;14.30;;;;;;;18.87;77.24;100694.65;107005;1263;60476;-40
2023/09/26 04:19:17;;;;;;;17.20;15.20;;;;;;;18.90;76.94;100693.58;107076;1259;60012;-40
2023/09/26 04:21:45;;;;;;;18.70;15.20;;;;;;;18.90;76.94;100696.16;107041;1259;73849;-40
2023/09/26 04:24:13;;;;;;;17.60;15.70;;;;;;;18.89;76.86;100696.86;107014;1259;67903;-40
2023/09/26 04:26:40;;;;;;;17.70;14.90;;;;;;;18.90;76.92;100696.63;107041;1259;71482;-40
2023/09/26 04:29:10;;;;;;;20.00;14.60;;;;;;;18.91;76.63;100695.94;106989;1262;60528;-40
2023/09/26 04:31:38;;;;;;;18.40;13.90;;;;;;;18.95;76.37;100696.20;107062;1259;60300;-40
2023/09/26 04:34:06;;;;;;;19.10;14.70;;;;;;;18.94;76.39;100695.40;107003;1259;73878;-40
2023/09/26 04:36:33;;;;;;;16.80;14.60;;;;;;;18.90;76.38;100699.23;107053;1259;67728;-40
2023/09/26 04:39:01;;;;;;;17.00;14.50;;;;;;;18.84;76.54;100701.06;106994;1262;72509;-40
2023/09/26 04:41:29;;;;;;;17.30;14.70;;;;;;;18.81;76.75;100705.77;107023;1261;60530;-40
2023/09/26 04:43:56;;;;;;;17.60;13.50;;;;;;;18.83;76.75;100708.05;107022;1259;60444;-40
2023/09/26 04:46:24;;;;;;;18.20;14.40;;;;;;;18.85;76.68;100705.48;107041;1259;72978;-40
2023/09/26 04:48:51;;;;;;;17.60;13.80;;;;;;;18.88;76.62;100708.32;107029;1259;67643;-40
2023/09/26 04:51:20;;;;;;;17.40;13.80;;;;;;;18.87;76.70;100712.80;107040;1264;72731;-40
2023/09/26 04:53:47;;;;;;;17.50;14.40;;;;;;;18.86;76.79;100716.24;107081;1260;60564;-40
2023/09/26 04:56:16;;;;;;;16.80;14.20;;;;;;;18.86;76.75;100712.63;107015;1259;60474;-40
2023/09/26 04:58:43;;;;;;;16.40;13.10;;;;;;;18.90;76.53;100716.66;107058;1259;73895;-40
2023/09/26 05:01:15;;;;;;;16.50;13.00;;;;;;;18.95;76.38;100715.52;107013;1264;67603;-40
2023/09/26 05:03:43;;;;;;;15.80;12.60;;;;;;;18.98;76.25;100713.10;107036;1262;72707;-40
2023/09/26 05:06:11;;;;;;;15.40;13.60;;;;;;;18.97;76.14;100710.98;107057;1259;60336;-40
2023/09/26 05:08:39;;;;;;;19.40;13.50;;;;;;;18.93;76.11;100714.55;107069;1259;59736;-40
2023/09/26 05:11:12;;;;;;;16.00;13.10;;;;;;;18.91;76.33;100719.58;106862;1259;73856;-40
2023/09/26 05:13:42;;;;;;;14.20;12.10;;;;;;;18.95;76.09;100718.80;107031;1259;67609;-40
2023/09/26 05:16:10;;;;;;;13.80;12.40;;;;;;;18.99;76.03;100723.86;106973;1264;71293;-40
2023/09/26 05:18:38;;;;;;;15.60;13.70;;;;;;;19.03;76.01;100723.34;107073;1262;60068;-40
2023/09/26 05:21:07;;;;;;;18.20;13.80;;;;;;;19.03;76.01;100719.96;107032;1259;60531;-40
2023/09/26 05:23:35;;;;;;;18.10;14.10;;;;;;;19.02;75.94;100724.29;107101;1259;73891;-40
2023/09/26 05:26:09;;;;;;;15.70;13.00;;;;;;;18.99;75.96;100729.43;107073;1259;66424;-40
2023/09/26 05:28:37;;;;;;;16.50;13.30;;;;;;;19.01;75.73;100728.98;107054;1257;71209;-40
2023/09/26 05:31:06;;;;;;;15.40;13.00;;;;;;;19.05;75.93;100730.27;107074;1259;61727;-40
2023/09/26 05:33:33;;;;;;;20.90;13.60;;;;;;;19.08;75.84;100732.48;107151;1260;59742;-40
2023/09/26 05:36:03;;;;;;;16.30;14.60;;;;;;;19.07;75.77;100731.30;107097;1259;73823;-40
2023/09/26 05:38:32;;;;;;;16.60;13.70;;;;;;;19.06;75.89;100736.72;107088;1257;68005;-40
2023/09/26 05:40:59;;;;;;;16.10;14.20;;;;;;;19.06;75.95;100736.56;107051;1260;73137;-40
2023/09/26 05:43:28;;;;;;;20.30;14.90;;;;;;;19.12;75.89;100733.77;107066;1259;62425;-40
2023/09/26 05:45:56;;;;;;;18.70;16.40;;;;;;;19.20;75.65;100733.11;107088;1258;59673;-40
2023/09/26 05:48:24;;;;;;;23.10;17.50;;;;;;;19.24;75.76;100730.30;107076;1262;73931;-40
2023/09/26 05:50:59;;;;;;;22.60;17.90;;;;;;;19.29;75.87;100734.89;107131;1258;66346;-40
2023/09/26 05:53:27;;;;;;;24.10;19.20;;;;;;;19.34;75.78;100736.33;107088;1259;71367;-40
2023/09/26 05:55:55;;;;;;;22.50;19.40;;;;;;;19.38;75.49;100738.77;107040;1262;60505;-40
2023/09/26 05:58:23;;;;;;;22.40;18.70;;;;;;;19.42;75.01;100738.17;107084;1257;60306;-40
2023/09/26 06:00:51;;;;;;;25.10;22.40;;;;;;;19.47;74.38;100741.20;107095;1262;74517;-40
2023/09/26 06:03:19;;;;;;;26.60;23.80;;;;;;;19.46;73.72;100740.65;107058;1260;67775;-40
2023/09/26 06:05:47;;;;;;;25.60;22.90;;;;;;;19.40;73.69;100743.90;107048;1258;71209;-40
2023/09/26 06:08:14;;;;;;;26.10;23.30;;;;;;;19.34;73.77;100742.30;107048;1257;60339;-40
2023/09/26 06:10:42;;;;;;;28.10;21.10;;;;;;;19.32;73.63;100741.81;107064;1262;60319;-40
2023/09/26 06:13:10;;;;;;;24.30;21.10;;;;;;;19.35;73.68;100743.09;107055;1259;73876;-40
2023/09/26 06:15:41;;;;;;;26.40;21.10;;;;;;;19.42;73.62;100747.85;107062;1259;67568;-40
2023/09/26 06:18:09;;;;;;;26.10;23.10;;;;;;;19.46;73.41;100747.26;107078;1262;73175;-40
2023/09/26 06:20:40;;;;;;;24.80;22.20;;;;;;;19.50;73.22;100750.27;107075;1260;60426;-40
2023/09/26 06:23:07;;;;;;;26.00;22.10;;;;;;;19.50;72.80;100754.27;107211;1260;60338;-40
2023/09/26 06:25:35;;;;;;;25.50;22.40;;;;;;;19.47;72.84;100756.70;107093;1258;72605;-40
2023/09/26 06:28:20;;;;;;;23.10;20.30;;;;;;;19.48;72.71;100757.96;107055;1261;67627;-40
2023/09/26 06:30:48;;;;;;;24.60;20.90;;;;;;;19.51;72.82;100756.47;107038;1260;71690;-40
2023/09/26 06:33:16;;;;;;;22.70;20.30;;;;;;;19.53;72.63;100761.04;107046;1257;60398;-40
2023/09/26 06:35:44;;;;;;;26.20;22.00;;;;;;;19.51;72.54;100760.25;107048;1257;60439;-40
2023/09/26 06:38:11;;;;;;;25.00;21.60;;;;;;;19.54;72.66;100762.55;107090;1257;73877;-40
2023/09/26 06:40:39;;;;;;;28.80;22.30;;;;;;;19.59;72.52;100762.88;107033;1257;66432;-40
2023/09/26 06:43:07;;;;;;;25.40;20.90;;;;;;;19.65;72.07;100765.66;107081;1262;72710;-40
2023/09/26 06:45:37;;;;;;;24.90;20.70;;;;;;;19.70;71.66;100765.20;107099;1259;60619;-40
2023/09/26 06:48:07;;;;;;;28.80;21.80;;;;;;;19.75;71.53;100764.36;107124;1258;60323;-40
2023/09/26 06:50:41;;;;;;;27.10;22.10;;;;;;;19.78;71.42;100763.74;107080;1260;73925;-40
2023/09/26 06:53:09;;;;;;;27.60;21.90;;;;;;;19.80;71.16;100762.88;107238;1260;66316;-40
2023/09/26 06:55:39;;;;;;;25.70;20.40;;;;;;;19.81;70.89;100764.47;107021;1260;72026;-40
2023/09/26 06:58:07;;;;;;;22.20;19.70;;;;;;;19.86;70.94;100764.64;107026;1259;61717;-40
2023/09/26 07:00:35;;;;;;;23.90;20.10;;;;;;;19.94;70.77;100767.34;107138;1260;60534;-39
2023/09/26 07:03:04;;;;;;;22.80;19.80;;;;;;;20.01;70.82;100765.48;107080;1258;72560;-40
2023/09/26 07:05:32;;;;;;;22.60;19.80;;;;;;;20.08;70.46;100765.89;107099;1260;67628;-40
2023/09/26 07:07:59;;;;;;;21.10;18.80;;;;;;;20.12;70.01;100762.75;107068;1257;71426;-40
2023/09/26 07:10:27;;;;;;;23.50;19.50;;;;;;;20.17;69.86;100763.01;107050;1260;60460;-40
2023/09/26 07:12:54;;;;;;;22.30;18.00;;;;;;;20.24;69.47;100760.26;107048;1258;60578;-40
2023/09/26 07:15:25;;;;;;;18.90;16.20;;;;;;;20.32;69.25;100761.47;107065;1259;73008;-40
2023/09/26 07:17:52;;;;;;;18.80;15.10;;;;;;;20.45;69.02;100763.14;107127;1262;67932;-40
2023/09/26 07:20:21;;;;;;;20.30;15.00;;;;;;;20.54;69.04;100761.11;107187;1257;71333;-40
2023/09/26 07:22:49;;;;;;;22.70;15.30;;;;;;;20.62;68.23;100765.52;107201;1258;60459;-40
2023/09/26 07:25:17;;;;;;;19.10;14.60;;;;;;;20.65;67.81;100766.95;107088;1257;60403;-40
2023/09/26 07:27:45;;;;;;;18.60;14.40;;;;;;;20.65;67.22;100765.14;107087;1262;73831;-40
2023/09/26 07:30:14;;;;;;;17.10;13.90;;;;;;;20.63;67.25;100762.84;107058;1258;67585;-40
2023/09/26 07:32:42;;;;;;;21.10;14.60;;;;;;;20.64;67.30;100763.33;107059;1259;72642;-39
2023/09/26 07:35:10;;;;;;;18.90;13.30;;;;;;;20.71;67.18;100767.65;107070;1262;61689;-40
2023/09/26 07:37:38;;;;;;;17.90;13.80;;;;;;;20.78;67.04;100765.52;107118;1262;60304;-40
2023/09/26 07:40:08;;;;;;;20.70;13.90;;;;;;;20.82;66.63;100767.65;107185;1260;73871;-40
2023/09/26 07:42:37;;;;;;;20.40;14.40;;;;;;;20.82;66.63;100762.77;107112;1261;67784;-40
2023/09/26 07:45:05;;;;;;;22.20;14.60;;;;;;;20.77;66.47;100760.02;107088;1262;72702;-40
2023/09/26 07:47:33;;;;;;;16.40;14.00;;;;;;;20.75;66.70;100761.76;107147;1261;61196;-40
2023/09/26 07:50:01;;;;;;;15.70;12.90;;;;;;;20.76;66.99;100759.62;107058;1262;60436;-40
2023/09/26 07:52:29;;;;;;;15.70;12.70;;;;;;;20.84;66.48;100758.84;107135;1262;73854;-40
2023/09/26 07:54:56;;;;;;;15.30;12.70;;;;;;;20.92;66.25;100760.33;107119;1261;67576;-40
2023/09/26 07:57:24;;;;;;;16.50;13.00;;;;;;;20.98;65.91;100763.15;107192;1262;72645;-40
2023/09/26 07:59:52;;;;;;;16.10;13.50;;;;;;;21.05;65.57;100760.94;107074;1262;60573;-40
2023/09/26 08:02:20;;;;;;;19.30;12.70;;;;;;;21.14;64.85;100753.46;107240;1258;60304;-40
2023/09/26 08:04:48;;;;;;;21.00;12.90;;;;;;;21.21;64.50;100750.06;107213;1258;73834;-40
2023/09/26 08:07:16;;;;;;;17.90;13.40;;;;;;;21.31;64.51;100751.06;107073;1262;67686;-40
2023/09/26 08:09:44;;;;;;;20.50;12.10;;;;;;;21.40;64.60;100745.05;107045;1264;71463;-40
2023/09/26 08:12:11;;;;;;;14.90;12.60;;;;;;;21.47;63.98;100740.77;107057;1258;60413;-40
2023/09/26 08:14:39;;;;;;;19.90;12.40;;;;;;;21.54;63.82;100737.59;107054;1258;60445;-40
2023/09/26 08:17:06;;;;;;;25.20;12.90;;;;;;;21.61;63.63;100737.80;107178;1257;72249;-40
2023/09/26 08:19:36;;;;;;;19.70;12.10;;;;;;;21.73;62.18;100735.60;107063;1258;67017;-40
2023/09/26 08:22:04;;;;;;;17.90;11.30;;;;;;;21.80;61.82;100728.17;107046;1262;71371;-40
2023/09/26 08:24:31;;;;;;;20.40;12.10;;;;;;;21.87;61.84;100729.08;107050;1261;60109;-40
2023/09/26 08:26:59;;;;;;;14.70;10.70;;;;;;;21.97;61.34;100724.95;107202;1259;60499;-40
2023/09/26 08:29:27;;;;;;;17.90;11.20;;;;;;;22.06;60.45;100722.84;107065;1262;73877;-40
2023/09/26 08:31:55;;;;;;;15.90;11.30;;;;;;;22.09;59.68;100724.94;107062;1257;67915;-40
2023/09/26 08:34:24;;;;;;;18.00;11.70;;;;;;;22.11;59.20;100723.99;107229;1262;72692;-40
2023/09/26 08:36:52;;;;;;;14.10;10.50;;;;;;;22.13;59.26;100726.59;106956;1262;172207;-40
2023/09/26 08:41:35;;;;;;;13.10;10.60;;;;;;;22.26;59.56;100715.69;104327;1289;600229;-39
2023/09/26 08:44:03;;;;;;;15.10;11.40;;;;;;;22.34;58.41;100716.96;106577;1267;62037;-39
2023/09/26 08:46:31;;;;;;;17.20;11.20;;;;;;;22.43;58.23;100719.35;106596;1266;59598;-39
2023/09/26 08:48:59;;;;;;;13.30;11.00;;;;;;;22.51;58.10;100719.91;106599;1266;72388;-39
2023/09/26 08:51:27;;;;;;;12.80;10.50;;;;;;;22.61;57.88;100716.76;106550;1266;67610;-39
2023/09/26 08:53:56;;;;;;;13.00;10.60;;;;;;;22.72;57.55;100717.61;106585;1267;72335;-39
2023/09/26 08:56:24;;;;;;;17.80;9.90;;;;;;;22.83;56.60;100717.92;106617;1264;189578;-39
2023/09/26 08:58:54;;;;;;;13.90;10.60;;;;;;;22.92;56.48;100715.14;106826;1264;59161;-39
2023/09/26 09:01:22;;;;;;;;;;;;;;;23.06;56.26;100712.48;106729;1263;71090;-39
2023/09/26 09:03:49;;;;;;;13.70;9.90;;;;;;;23.18;56.12;100707.68;106745;1264;67607;-39
2023/09/26 09:06:17;;;;;;;14.90;10.20;;;;;;;23.31;55.43;100709.27;106665;1264;71619;-39
2023/09/26 09:08:45;;;;;;;17.30;10.70;;;;;;;23.48;55.62;100709.80;106620;1264;60082;-39
2023/09/26 09:11:12;;;;;;;13.80;10.60;;;;;;;23.57;55.74;100707.88;106687;1263;59558;-39
2023/09/26 09:13:43;;;;;;;12.40;9.90;;;;;;;23.67;56.04;100706.33;106705;1269;73024;-39
2023/09/26 09:16:15;;;;;;;13.50;9.70;;;;;;;23.80;55.73;100704.01;106709;1263;68063;-39
2023/09/26 09:18:44;;;;;;;16.90;10.80;;;;;;;23.94;54.91;100702.70;106752;1265;71404;-39
2023/09/26 09:21:31;;;;;;;14.10;10.30;;;;;;;24.08;54.71;100704.25;106777;1266;60297;-39
2023/09/26 09:24:04;;;;;;;15.90;10.80;;;;;;;24.22;54.38;100703.34;106732;1264;59999;-39
2023/09/26 09:26:34;;;;;;;12.30;9.70;;;;;;;24.35;53.86;100698.86;106817;1267;71882;-39
2023/09/26 09:29:15;;;;;;;19.00;10.90;;;;;;;24.46;53.25;100694.55;106802;1267;67585;-39
2023/09/26 09:31:43;;;;;;;15.40;9.80;;;;;;;24.54;52.55;100691.66;106768;1264;73148;-39
2023/09/26 09:34:12;;;;;;;15.50;10.60;;;;;;;24.62;52.68;100690.02;106702;1264;60578;-39
2023/09/26 09:36:40;;;;;;;13.60;9.80;;;;;;;24.76;52.29;100692.30;106741;1264;61253;-39
2023/09/26 09:39:10;;;;;;;12.30;9.60;;;;;;;24.90;52.24;100693.90;106723;1264;73086;-40
2023/09/26 09:41:39;;;;;;;14.60;9.30;;;;;;;24.99;51.59;100689.38;106718;1264;67909;-39
2023/09/26 09:44:06;;;;;;;18.80;9.50;;;;;;;25.10;51.26;100693.59;106876;1263;71487;-39
2023/09/26 09:46:40;;;;;;;13.70;9.40;;;;;;;25.24;50.95;100690.55;106863;1263;60378;-39
2023/09/26 09:49:12;;;;;;;11.30;8.70;;;;;;;25.37;49.89;100689.09;106904;1261;60094;-39
2023/09/26 09:51:45;;;;;;;12.80;8.90;;;;;;;25.47;49.69;100683.30;106866;1263;73128;-39
2023/09/26 09:54:15;;;;;;;12.30;8.60;;;;;;;25.59;48.85;100684.23;106879;1263;67563;-39
2023/09/26 09:56:46;;;;;;;13.80;8.40;;;;;;;25.68;48.61;100681.08;106856;1266;73296;-39
2023/09/26 09:59:15;;;;;;;14.70;8.80;;;;;;;25.77;48.76;100679.45;106919;1260;59523;-39
2023/09/26 10:01:45;;;;;;;11.30;8.80;;;;;;;25.87;48.62;100680.23;106904;1260;60159;-39
2023/09/26 10:04:16;;;;;;;14.00;9.00;;;;;;;25.99;48.64;100680.37;106884;1261;74152;-39
2023/09/26 10:06:45;;;;;;;13.60;8.90;;;;;;;26.12;47.72;100678.41;106897;1263;67578;-40
2023/09/26 10:09:13;;;;;;;12.30;8.40;;;;;;;26.21;47.41;100680.59;106881;1263;72835;-39
2023/09/26 10:11:40;;;;;;;14.50;9.20;;;;;;;26.28;47.14;100680.17;106865;1263;60988;-39
2023/09/26 10:14:23;;;;;;;12.50;8.70;;;;;;;26.36;46.73;100673.85;106833;1262;60866;-39
2023/09/26 10:16:51;;;;;;;11.90;8.60;;;;;;;26.49;46.60;100671.17;106874;1266;75250;-40
2023/09/26 10:19:19;;;;;;;12.00;8.90;;;;;;;26.61;46.40;100670.77;106893;1262;66660;-40
2023/09/26 10:22:15;;;;;;;12.90;8.80;;;;;;;26.77;45.14;100671.52;106855;1263;72647;-39
2023/09/26 10:24:52;;;;;;;9.60;8.60;;;;;;;26.90;44.80;100670.12;106922;1260;59470;-40
2023/09/26 10:27:36;;;;;;;13.80;8.80;;;;;;;26.97;44.43;100667.12;106857;1263;60145;-39
2023/09/26 10:30:24;;;;;;;12.00;8.70;;;;;;;27.08;44.56;100668.34;106853;1261;75155;-40
2023/09/26 10:32:52;;;;;;;10.00;8.90;;;;;;;27.21;44.19;100670.73;106880;1269;66629;-40
2023/09/26 10:35:23;;;;;;;15.70;8.30;;;;;;;27.35;43.68;100673.14;106885;1263;74903;-40
2023/09/26 10:38:18;;;;;;;13.50;8.50;;;;;;;27.48;43.08;100669.81;106918;1263;60529;-39
2023/09/26 10:40:46;;;;;;;12.10;9.00;;;;;;;27.64;42.54;100669.73;106803;1260;62171;-40
2023/09/26 10:43:15;;;;;;;16.90;7.90;;;;;;;27.78;42.24;100669.16;106810;1260;71839;-40
2023/09/26 10:45:46;;;;;;;16.20;8.80;;;;;;;27.94;42.09;100662.92;106816;1264;68349;-40
2023/09/26 10:48:19;;;;;;;14.60;8.10;;;;;;;28.08;41.71;100663.12;106830;1263;72726;-40
2023/09/26 10:50:47;;;;;;;13.50;8.20;;;;;;;28.24;41.43;100664.05;106885;1263;60052;-40
2023/09/26 10:53:14;;;;;;;13.80;9.00;;;;;;;28.39;41.02;100661.55;106859;1261;59320;-40
2023/09/26 10:55:42;;;;;;;11.70;8.30;;;;;;;28.54;40.40;100659.84;106813;1261;71897;-40
2023/09/26 10:58:10;;;;;;;12.00;7.90;;;;;;;28.64;40.36;100656.21;106873;1268;67600;-40
2023/09/26 11:00:37;;;;;;;14.30;8.00;;;;;;;28.68;40.46;100657.20;106839;1263;73159;-40
2023/09/26 11:03:05;;;;;;;12.40;8.20;;;;;;;28.79;40.43;100656.77;106822;1261;59968;-40
2023/09/26 11:05:33;;;;;;;12.90;8.40;;;;;;;28.90;40.14;100660.49;106847;1263;62220;-40
2023/09/26 11:08:01;;;;;;;13.50;8.00;;;;;;;29.02;40.10;100659.77;106867;1263;73038;-40
2023/09/26 11:10:29;;;;;;;15.10;8.40;;;;;;;29.15;39.92;100657.76;106856;1263;67540;-40
2023/09/26 11:12:57;;;;;;;11.60;8.10;;;;;;;29.31;39.24;100657.43;106825;1266;71832;-40
2023/09/26 11:15:28;;;;;;;12.50;7.50;;;;;;;29.47;39.05;100655.55;106843;1263;60059;-40